createdAt,value
2018-11-07T00:01:46.617Z,12.83
2018-11-07T00:04:16.405Z,12.82
2018-11-07T00:06:46.306Z,12.81
2018-11-07T00:09:16.209Z,12.82
2018-11-07T00:11:46.025Z,12.83
2018-11-07T00:14:15.873Z,12.82
2018-11-07T00:16:45.666Z,10.93
2018-11-07T00:19:15.485Z,12.81
2018-11-07T00:21:45.215Z,12.82
2018-11-07T00:24:14.974Z,12.84
2018-11-07T00:26:44.821Z,12.82
2018-11-07T00:29:14.672Z,12.84
2018-11-07T00:31:44.496Z,12.85
2018-11-07T00:34:14.461Z,12.82
2018-11-07T00:36:44.356Z,12.84
2018-11-07T00:39:14.200Z,12.81
2018-11-07T00:41:43.999Z,12.80
2018-11-07T00:44:13.901Z,12.80
2018-11-07T00:46:43.715Z,12.80
2018-11-07T00:49:13.549Z,12.80
2018-11-07T00:51:43.457Z,12.77
2018-11-07T00:54:13.325Z,12.78
2018-11-07T00:56:43.239Z,12.81
2018-11-07T00:59:13.152Z,12.83
2018-11-07T01:01:42.963Z,12.84
2018-11-07T01:04:12.828Z,12.85
2018-11-07T01:06:42.698Z,12.86
2018-11-07T01:09:13.484Z,12.84
2018-11-07T01:11:43.862Z,12.83
2018-11-07T01:14:13.701Z,12.82
2018-11-07T01:16:43.570Z,12.84
2018-11-07T01:19:13.404Z,12.84
2018-11-07T01:21:43.240Z,12.83
2018-11-07T01:24:13.053Z,12.80
2018-11-07T01:26:43.452Z,12.81
2018-11-07T01:29:13.273Z,12.80
2018-11-07T01:31:43.206Z,12.80
2018-11-07T01:34:13.511Z,12.78
2018-11-07T01:36:43.293Z,12.79
2018-11-07T01:39:13.182Z,12.79
2018-11-07T01:41:43.025Z,12.76
2018-11-07T01:44:12.878Z,12.77
2018-11-07T01:46:42.754Z,12.75
2018-11-07T01:49:12.648Z,12.74
2018-11-07T01:51:42.509Z,12.77
2018-11-07T01:54:12.336Z,12.75
2018-11-07T01:56:42.245Z,12.73
2018-11-07T01:59:12.109Z,12.72
2018-11-07T02:01:42.009Z,12.70
2018-11-07T02:04:11.840Z,12.69
2018-11-07T02:06:41.670Z,12.69
2018-11-07T02:09:11.563Z,12.69
2018-11-07T02:11:41.428Z,12.70
2018-11-07T02:14:11.223Z,12.70
2018-11-07T02:16:41.008Z,12.68
2018-11-07T02:19:10.874Z,12.68
2018-11-07T02:21:40.690Z,12.69
2018-11-07T02:24:10.562Z,12.71
2018-11-07T02:26:40.460Z,12.71
2018-11-07T02:29:13.336Z,12.72
2018-11-07T02:31:45.235Z,12.69
2018-11-07T02:34:15.835Z,12.69
2018-11-07T02:36:45.731Z,12.71
2018-11-07T02:39:16.106Z,12.72
2018-11-07T02:41:46.007Z,12.71
2018-11-07T02:44:15.905Z,12.72
2018-11-07T02:46:45.844Z,12.62
2018-11-07T02:49:15.737Z,12.72
2018-11-07T02:51:45.509Z,12.70
2018-11-07T02:54:15.379Z,12.69
2018-11-07T02:56:45.206Z,12.68
2018-11-07T02:59:15.065Z,12.68
2018-11-07T03:01:44.810Z,12.67
2018-11-07T03:04:14.624Z,12.66
2018-11-07T03:06:44.476Z,12.68
2018-11-07T03:09:14.344Z,12.68
2018-11-07T03:11:44.165Z,12.67
2018-11-07T03:14:14.053Z,12.67
2018-11-07T03:16:43.874Z,12.67
2018-11-07T03:19:13.659Z,12.66
2018-11-07T03:21:43.522Z,12.65
2018-11-07T03:24:13.425Z,12.65
2018-11-07T03:26:43.277Z,12.65
2018-11-07T03:29:13.169Z,12.64
2018-11-07T03:31:42.977Z,12.63
2018-11-07T03:34:12.724Z,11.64
2018-11-07T03:36:42.547Z,12.60
2018-11-07T03:39:12.645Z,12.58
2018-11-07T03:41:42.515Z,12.58
2018-11-07T03:44:12.250Z,12.58
2018-11-07T03:46:42.085Z,12.60
2018-11-07T03:49:11.890Z,12.61
2018-11-07T03:51:41.753Z,12.61
2018-11-07T03:54:11.665Z,12.59
2018-11-07T03:56:41.497Z,12.58
2018-11-07T03:59:11.358Z,12.59
2018-11-07T04:01:41.241Z,12.61
2018-11-07T04:04:11.107Z,12.59
2018-11-07T04:06:40.999Z,12.60
2018-11-07T04:09:12.595Z,12.60
2018-11-07T04:11:43.326Z,12.60
2018-11-07T04:14:13.309Z,12.61
2018-11-07T04:16:43.172Z,12.61
2018-11-07T04:19:12.954Z,12.62
2018-11-07T04:21:42.842Z,12.61
2018-11-07T04:24:12.684Z,12.59
2018-11-07T04:26:42.570Z,12.59
2018-11-07T04:29:12.509Z,12.58
2018-11-07T04:31:42.333Z,12.57
2018-11-07T04:34:12.289Z,12.58
2018-11-07T04:36:42.185Z,12.59
2018-11-07T04:39:12.126Z,12.60
2018-11-07T04:41:42.059Z,12.45
2018-11-07T04:44:11.899Z,12.63
2018-11-07T04:46:41.798Z,12.62
2018-11-07T04:49:11.579Z,12.62
2018-11-07T04:51:41.507Z,12.62
2018-11-07T04:54:11.271Z,12.58
2018-11-07T04:56:41.091Z,12.58
2018-11-07T04:59:10.918Z,12.57
2018-11-07T05:01:40.821Z,12.57
2018-11-07T05:04:10.600Z,12.54
2018-11-07T05:06:40.484Z,12.54
2018-11-07T05:09:10.624Z,12.55
2018-11-07T05:11:40.523Z,12.54
2018-11-07T05:14:10.404Z,12.55
2018-11-07T05:16:40.290Z,12.53
2018-11-07T05:19:10.147Z,11.72
2018-11-07T05:21:39.966Z,12.50
2018-11-07T05:24:09.674Z,12.48
2018-11-07T05:26:39.622Z,12.48
2018-11-07T05:29:09.507Z,12.45
2018-11-07T05:31:39.377Z,12.47
2018-11-07T05:34:09.231Z,12.47
2018-11-07T05:36:39.130Z,12.47
2018-11-07T05:39:10.034Z,12.46
2018-11-07T05:41:39.938Z,12.45
2018-11-07T05:44:09.796Z,12.43
2018-11-07T05:46:39.531Z,12.42
2018-11-07T05:49:09.431Z,12.43
2018-11-07T05:51:39.341Z,12.42
2018-11-07T05:54:09.205Z,12.45
2018-11-07T05:56:39.121Z,12.46
2018-11-07T05:59:08.990Z,12.46
2018-11-07T06:01:38.988Z,12.48
2018-11-07T06:04:09.464Z,12.47
2018-11-07T06:06:39.324Z,12.48
2018-11-07T06:09:09.262Z,12.48
2018-11-07T06:11:39.088Z,12.48
2018-11-07T06:14:09.417Z,12.47
2018-11-07T06:16:39.291Z,12.49
2018-11-07T06:19:09.145Z,12.49
2018-11-07T06:21:38.983Z,12.47
2018-11-07T06:24:08.924Z,12.48
2018-11-07T06:26:38.874Z,12.52
2018-11-07T06:29:08.886Z,12.57
2018-11-07T06:31:38.884Z,12.68
2018-11-07T06:34:09.014Z,12.80
2018-11-07T06:36:38.826Z,12.82
2018-11-07T06:39:10.103Z,12.31
2018-11-07T06:41:40.021Z,12.88
2018-11-07T06:44:09.941Z,12.92
2018-11-07T06:46:39.896Z,12.91
2018-11-07T06:49:09.729Z,12.98
2018-11-07T06:51:39.539Z,12.96
2018-11-07T06:54:09.279Z,12.94
2018-11-07T06:56:39.198Z,12.94
2018-11-07T06:59:09.306Z,12.89
2018-11-07T07:01:39.091Z,12.84
2018-11-07T07:04:08.991Z,12.85
2018-11-07T07:06:38.949Z,12.83
2018-11-07T07:09:09.691Z,12.81
2018-11-07T07:11:39.955Z,12.82
2018-11-07T07:14:10.056Z,12.80
2018-11-07T07:16:40.023Z,12.75
2018-11-07T07:19:09.903Z,12.73
2018-11-07T07:21:39.794Z,12.69
2018-11-07T07:24:09.727Z,12.68
2018-11-07T07:26:39.594Z,12.65
2018-11-07T07:29:09.507Z,12.64
2018-11-07T07:31:39.465Z,12.68
2018-11-07T07:34:09.380Z,12.70
2018-11-07T07:36:39.323Z,12.68
2018-11-07T07:39:10.263Z,12.72
2018-11-07T07:41:40.237Z,12.72
2018-11-07T07:44:10.171Z,12.71
2018-11-07T07:46:40.204Z,12.73
2018-11-07T07:49:10.275Z,12.75
2018-11-07T07:51:40.152Z,12.76
2018-11-07T07:54:10.123Z,12.79
2018-11-07T07:56:40.093Z,12.76
2018-11-07T07:59:10.125Z,12.76
2018-11-07T08:01:40.020Z,12.77
2018-11-07T08:04:09.896Z,12.87
2018-11-07T08:06:39.892Z,12.93
2018-11-07T08:09:12.903Z,13.04
2018-11-07T08:11:42.838Z,13.11
2018-11-07T08:14:12.781Z,13.17
2018-11-07T08:16:43.760Z,13.14
2018-11-07T08:19:13.767Z,13.13
2018-11-07T08:21:43.748Z,13.16
2018-11-07T08:24:13.737Z,13.24
2018-11-07T08:26:43.648Z,13.31
2018-11-07T08:29:13.652Z,13.37
2018-11-07T08:31:43.618Z,13.41
2018-11-07T08:34:13.570Z,13.45
2018-11-07T08:36:43.560Z,13.47
2018-11-07T08:39:13.780Z,13.52
2018-11-07T08:41:43.751Z,13.61
2018-11-07T08:44:13.663Z,13.67
2018-11-07T08:46:43.798Z,13.70
2018-11-07T08:49:13.611Z,13.70
2018-11-07T08:51:43.548Z,13.70
2018-11-07T08:54:13.387Z,13.70
2018-11-07T08:56:43.318Z,13.75
2018-11-07T08:59:13.368Z,13.75
2018-11-07T09:01:43.314Z,13.76
2018-11-07T09:04:13.388Z,13.73
2018-11-07T09:06:43.275Z,13.67
2018-11-07T09:09:13.243Z,13.61
2018-11-07T09:11:43.139Z,13.56
2018-11-07T09:14:13.080Z,13.58
2018-11-07T09:16:43.159Z,13.57
2018-11-07T09:19:13.595Z,13.61
2018-11-07T09:21:43.688Z,13.63
2018-11-07T09:24:13.971Z,13.69
2018-11-07T09:26:44.307Z,13.73
2018-11-07T09:29:14.410Z,13.82
2018-11-07T09:31:44.229Z,13.90
2018-11-07T09:34:14.173Z,13.98
2018-11-07T09:36:44.087Z,14.01
2018-11-07T09:39:14.406Z,14.08
2018-11-07T09:41:44.408Z,14.11
2018-11-07T09:44:14.348Z,14.11
2018-11-07T09:46:44.303Z,14.13
2018-11-07T09:49:14.291Z,14.16
2018-11-07T09:51:44.235Z,14.19
2018-11-07T09:54:14.257Z,14.24
2018-11-07T09:56:44.161Z,12.86
2018-11-07T09:59:14.221Z,14.54
2018-11-07T10:01:44.142Z,14.61
2018-11-07T10:04:14.276Z,14.66
2018-11-07T10:06:44.373Z,14.68
2018-11-07T10:09:14.304Z,14.72
2018-11-07T10:11:44.295Z,14.78
2018-11-07T10:14:14.313Z,14.90
2018-11-07T10:16:44.227Z,14.95
2018-11-07T10:19:14.162Z,14.96
2018-11-07T10:21:44.150Z,14.99
2018-11-07T10:24:14.112Z,14.97
2018-11-07T10:26:44.146Z,14.93
2018-11-07T10:29:14.194Z,14.94
2018-11-07T10:31:43.988Z,14.95
2018-11-07T10:34:13.863Z,14.95
2018-11-07T10:36:43.872Z,14.90
2018-11-07T10:39:13.819Z,14.83
2018-11-07T10:41:43.709Z,14.74
2018-11-07T10:44:13.703Z,14.70
2018-11-07T10:46:43.639Z,14.70
2018-11-07T10:49:13.650Z,14.68
2018-11-07T10:51:43.683Z,14.76
2018-11-07T10:54:13.675Z,14.76
2018-11-07T10:56:43.637Z,14.73
2018-11-07T10:59:13.438Z,14.66
2018-11-07T11:01:48.444Z,14.66
2018-11-07T11:04:18.372Z,14.74
2018-11-07T11:06:48.244Z,14.87
2018-11-07T11:09:18.107Z,14.93
2018-11-07T11:11:47.967Z,14.99
2018-11-07T11:14:17.948Z,15.06
2018-11-07T11:16:47.944Z,14.98
2018-11-07T11:19:17.818Z,15.05
2018-11-07T11:21:47.832Z,15.14
2018-11-07T11:24:17.724Z,15.06
2018-11-07T11:26:47.714Z,15.01
2018-11-07T11:29:17.642Z,14.51
2018-11-07T11:31:47.543Z,14.97
2018-11-07T11:34:17.636Z,15.01
2018-11-07T11:36:47.425Z,15.07
2018-11-07T11:39:17.429Z,15.14
2018-11-07T11:41:47.386Z,15.21
2018-11-07T11:44:17.380Z,15.25
2018-11-07T11:46:47.335Z,15.23
2018-11-07T11:49:17.263Z,15.23
2018-11-07T11:51:47.133Z,14.83
2018-11-07T11:54:17.028Z,15.41
2018-11-07T11:56:47.006Z,15.41
2018-11-07T11:59:16.921Z,15.42
2018-11-07T12:01:46.882Z,15.36
2018-11-07T12:04:16.838Z,15.39
2018-11-07T12:06:46.823Z,15.40
2018-11-07T12:09:16.827Z,15.37
2018-11-07T12:11:46.715Z,15.31
2018-11-07T12:14:16.555Z,15.30
2018-11-07T12:16:46.442Z,15.26
2018-11-07T12:19:16.383Z,15.14
2018-11-07T12:21:46.369Z,15.17
2018-11-07T12:24:16.346Z,15.15
2018-11-07T12:26:46.192Z,15.14
2018-11-07T12:29:16.165Z,15.11
2018-11-07T12:31:46.109Z,15.06
2018-11-07T12:34:16.107Z,15.03
2018-11-07T12:36:45.975Z,14.97
2018-11-07T12:39:15.852Z,14.96
2018-11-07T12:41:45.756Z,14.97
2018-11-07T12:44:15.615Z,14.97
2018-11-07T12:46:45.470Z,14.71
2018-11-07T12:49:15.356Z,14.95
2018-11-07T12:51:45.279Z,14.95
2018-11-07T12:54:15.304Z,14.90
2018-11-07T12:56:45.119Z,14.86
2018-11-07T12:59:15.030Z,14.83
2018-11-07T13:01:44.812Z,14.80
2018-11-07T13:04:15.699Z,14.85
2018-11-07T13:06:45.574Z,14.91
2018-11-07T13:09:15.526Z,14.92
2018-11-07T13:11:45.442Z,14.89
2018-11-07T13:14:15.468Z,14.78
2018-11-07T13:16:45.572Z,14.74
2018-11-07T13:19:15.471Z,14.63
2018-11-07T13:21:45.404Z,14.60
2018-11-07T13:24:15.301Z,14.50
2018-11-07T13:26:45.169Z,14.38
2018-11-07T13:29:15.128Z,14.39
2018-11-07T13:31:45.187Z,14.37
2018-11-07T13:34:15.172Z,14.39
2018-11-07T13:36:45.065Z,14.42
2018-11-07T13:39:15.373Z,14.46
2018-11-07T13:41:44.883Z,14.42
2018-11-07T13:44:14.884Z,14.43
2018-11-07T13:46:44.739Z,14.43
2018-11-07T13:49:14.689Z,14.40
2018-11-07T13:51:44.569Z,14.41
2018-11-07T13:54:14.458Z,14.41
2018-11-07T13:56:44.300Z,14.40
2018-11-07T13:59:14.141Z,14.36
2018-11-07T14:01:44.004Z,14.31
2018-11-07T14:04:13.859Z,14.25
2018-11-07T14:06:43.727Z,14.17
2018-11-07T14:09:13.547Z,14.07
2018-11-07T14:11:43.458Z,14.00
2018-11-07T14:14:13.381Z,13.96
2018-11-07T14:16:43.296Z,13.93
2018-11-07T14:19:13.255Z,13.91
2018-11-07T14:21:43.205Z,13.86
2018-11-07T14:24:13.165Z,13.82
2018-11-07T14:26:43.115Z,13.79
2018-11-07T14:29:13.025Z,13.76
2018-11-07T14:31:42.996Z,13.74
2018-11-07T14:34:13.000Z,13.72
2018-11-07T14:36:42.965Z,13.70
2018-11-07T14:39:13.147Z,13.65
2018-11-07T14:41:43.001Z,13.61
2018-11-07T14:44:13.012Z,13.59
2018-11-07T14:46:43.032Z,13.55
2018-11-07T14:49:13.151Z,13.49
2018-11-07T14:51:43.045Z,13.44
2018-11-07T14:54:13.306Z,13.39
2018-11-07T14:56:43.339Z,13.35
2018-11-07T14:59:13.283Z,13.29
2018-11-07T15:01:43.293Z,13.22
2018-11-07T15:04:13.296Z,13.18
2018-11-07T15:06:43.367Z,13.13
2018-11-07T15:09:13.409Z,13.11
2018-11-07T15:11:43.425Z,13.04
2018-11-07T15:14:13.397Z,13.00
2018-11-07T15:16:43.333Z,12.92
2018-11-07T15:19:13.300Z,12.87
2018-11-07T15:21:43.311Z,12.81
2018-11-07T15:24:13.225Z,12.76
2018-11-07T15:26:43.223Z,12.69
2018-11-07T15:29:13.192Z,12.61
2018-11-07T15:31:43.200Z,12.56
2018-11-07T15:34:13.248Z,12.50
2018-11-07T15:36:43.260Z,12.41
2018-11-07T15:39:13.352Z,12.38
2018-11-07T15:41:43.719Z,12.31
2018-11-07T15:44:13.689Z,12.25
2018-11-07T15:46:43.660Z,12.19
2018-11-07T15:49:13.845Z,12.13
2018-11-07T15:51:43.800Z,12.17
2018-11-07T15:54:13.801Z,12.12
2018-11-07T15:56:43.792Z,12.11
2018-11-07T15:59:13.692Z,12.08
2018-11-07T16:01:43.715Z,12.12
2018-11-07T16:04:13.723Z,12.15
2018-11-07T16:06:43.625Z,12.27
2018-11-07T16:09:13.703Z,12.29
2018-11-07T16:11:43.708Z,12.27
2018-11-07T16:14:13.659Z,12.23
2018-11-07T16:16:43.740Z,12.21
2018-11-07T16:19:13.658Z,11.72
2018-11-07T16:21:43.658Z,12.29
2018-11-07T16:24:13.790Z,12.21
2018-11-07T16:26:43.763Z,11.99
2018-11-07T16:29:13.737Z,11.94
2018-11-07T16:31:43.719Z,11.88
2018-11-07T16:34:13.640Z,11.82
2018-11-07T16:36:43.735Z,11.78
2018-11-07T16:39:13.814Z,11.75
2018-11-07T16:41:44.040Z,11.74
2018-11-07T16:44:13.884Z,11.72
2018-11-07T16:46:43.764Z,11.71
2018-11-07T16:49:14.037Z,11.69
2018-11-07T16:51:43.997Z,11.68
2018-11-07T16:54:18.688Z,11.61
2018-11-07T16:56:49.646Z,11.57
2018-11-07T16:59:19.968Z,11.52
2018-11-07T17:01:49.819Z,11.05
2018-11-07T17:04:19.833Z,11.48
2018-11-07T17:06:49.738Z,11.37
2018-11-07T17:09:19.602Z,11.32
2018-11-07T17:11:49.598Z,11.27
2018-11-07T17:14:19.567Z,11.25
2018-11-07T17:16:49.627Z,11.23
2018-11-07T17:19:19.639Z,11.22
2018-11-07T17:21:49.724Z,11.22
2018-11-07T17:24:19.773Z,11.22
2018-11-07T17:26:49.560Z,11.25
2018-11-07T17:29:19.589Z,11.24
2018-11-07T17:31:49.547Z,11.23
2018-11-07T17:34:19.632Z,11.24
2018-11-07T17:36:49.691Z,11.19
2018-11-07T17:39:19.961Z,11.25
2018-11-07T17:41:49.881Z,11.29
2018-11-07T17:44:19.891Z,11.21
2018-11-07T17:46:49.785Z,11.16
2018-11-07T17:49:19.829Z,11.18
2018-11-07T17:51:49.910Z,11.20
2018-11-07T17:54:20.133Z,11.22
2018-11-07T17:56:50.150Z,11.25
2018-11-07T17:59:20.246Z,11.28
2018-11-07T18:01:50.377Z,11.32
2018-11-07T18:04:20.471Z,11.35
2018-11-07T18:06:50.620Z,11.37
2018-11-07T18:09:20.914Z,11.40
2018-11-07T18:11:51.156Z,11.40
2018-11-07T18:14:21.369Z,11.35
2018-11-07T18:16:51.505Z,11.31
2018-11-07T18:19:21.875Z,11.26
2018-11-07T18:21:52.186Z,11.21
2018-11-07T18:24:22.575Z,11.17
2018-11-07T18:26:52.921Z,11.16
2018-11-07T18:29:23.347Z,11.16
2018-11-07T18:31:53.692Z,11.17
2018-11-07T18:34:24.064Z,11.16
2018-11-07T18:36:54.552Z,11.12
2018-11-07T18:39:24.773Z,11.13
2018-11-07T18:41:55.055Z,11.25
2018-11-07T18:44:25.445Z,11.27
2018-11-07T18:46:55.678Z,11.28
2018-11-07T18:49:26.100Z,11.25
2018-11-07T18:51:57.589Z,11.23
2018-11-07T18:54:28.502Z,11.19
2018-11-07T18:56:58.890Z,11.14
2018-11-07T18:59:30.052Z,11.10
2018-11-07T19:02:01.725Z,11.03
2018-11-07T19:04:32.966Z,11.00
2018-11-07T19:07:03.310Z,10.93
2018-11-07T19:09:34.422Z,10.89
2018-11-07T19:12:04.881Z,10.74
2018-11-07T19:14:35.386Z,10.88
2018-11-07T19:17:05.783Z,10.84
2018-11-07T19:19:36.576Z,10.80
2018-11-07T19:22:07.042Z,10.75
2018-11-07T19:24:37.907Z,10.76
2018-11-07T19:27:08.587Z,10.78
2018-11-07T19:29:39.937Z,10.78
2018-11-07T19:32:10.874Z,10.74
2018-11-07T19:34:41.309Z,10.75
2018-11-07T19:37:11.737Z,10.68
2018-11-07T19:39:42.223Z,10.61
2018-11-07T19:42:12.745Z,10.53
2018-11-07T19:44:44.301Z,10.52
2018-11-07T19:47:15.347Z,10.49
2018-11-07T19:49:47.006Z,10.43
2018-11-07T19:52:17.816Z,10.37
2018-11-07T19:54:48.352Z,10.38
2018-11-07T19:57:18.840Z,10.44
2018-11-07T19:59:49.148Z,10.46
2018-11-07T20:02:19.569Z,10.48
2018-11-07T20:04:51.157Z,10.49
2018-11-07T20:07:22.125Z,10.48
2018-11-07T20:09:52.765Z,10.49
2018-11-07T20:12:24.750Z,10.50
2018-11-07T20:14:55.783Z,10.48
2018-11-07T20:17:26.271Z,10.48
2018-11-07T20:19:57.516Z,10.62
2018-11-07T20:22:28.826Z,10.65
2018-11-07T20:25:01.402Z,10.82
2018-11-07T20:27:32.142Z,10.81
2018-11-07T20:30:03.217Z,10.77
2018-11-07T20:32:33.934Z,10.78
2018-11-07T20:35:05.155Z,10.80
2018-11-07T20:37:36.418Z,10.84
2018-11-07T20:40:10.981Z,10.90
2018-11-07T20:42:41.439Z,10.93
2018-11-07T20:45:12.821Z,10.42
2018-11-07T20:47:44.390Z,10.99
2018-11-07T20:50:18.345Z,10.94
2018-11-07T20:52:49.799Z,10.95
2018-11-07T20:55:20.225Z,10.98
2018-11-07T20:57:51.774Z,11.02
2018-11-07T21:00:23.458Z,11.06
2018-11-07T21:02:53.955Z,11.07
2018-11-07T21:05:24.443Z,11.03
2018-11-07T21:07:54.912Z,11.02
2018-11-07T21:10:25.407Z,11.03
2018-11-07T21:12:55.702Z,11.04
2018-11-07T21:15:26.055Z,11.07
2018-11-07T21:17:56.277Z,11.08
2018-11-07T21:20:26.570Z,11.15
2018-11-07T21:22:56.900Z,11.20
2018-11-07T21:25:27.116Z,11.22
2018-11-07T21:27:57.371Z,11.22
2018-11-07T21:30:27.589Z,11.22
2018-11-07T21:32:57.856Z,11.21
2018-11-07T21:35:28.192Z,11.20
2018-11-07T21:37:58.424Z,11.24
2018-11-07T21:40:28.750Z,11.28
2018-11-07T21:42:58.873Z,11.30
2018-11-07T21:45:29.004Z,11.29
2018-11-07T21:47:58.975Z,11.32
2018-11-07T21:50:29.111Z,11.33
2018-11-07T21:52:59.004Z,11.35
2018-11-07T21:55:28.973Z,11.37
2018-11-07T21:57:58.883Z,11.38
2018-11-07T22:00:28.910Z,11.43
2018-11-07T22:02:58.874Z,11.42
2018-11-07T22:05:29.043Z,11.42
2018-11-07T22:07:58.909Z,11.45
2018-11-07T22:10:28.843Z,11.47
2018-11-07T22:12:58.661Z,11.47
2018-11-07T22:15:28.486Z,11.46
2018-11-07T22:17:59.029Z,11.46
2018-11-07T22:20:28.895Z,11.46
2018-11-07T22:22:58.788Z,11.48
2018-11-07T22:25:28.680Z,11.49
2018-11-07T22:27:58.482Z,11.52
2018-11-07T22:30:28.396Z,11.54
2018-11-07T22:32:58.171Z,11.55
2018-11-07T22:35:27.985Z,11.55
2018-11-07T22:37:57.797Z,11.55
2018-11-07T22:40:27.651Z,11.56
2018-11-07T22:42:57.557Z,11.58
2018-11-07T22:45:27.363Z,11.59
2018-11-07T22:47:57.194Z,11.62
2018-11-07T22:50:26.920Z,11.64
2018-11-07T22:52:56.626Z,11.65
2018-11-07T22:55:26.497Z,11.64
2018-11-07T22:57:56.337Z,11.64
2018-11-07T23:00:31.216Z,11.70
2018-11-07T23:03:00.986Z,10.86
2018-11-07T23:05:30.787Z,11.62
2018-11-07T23:08:00.556Z,11.60
2018-11-07T23:10:30.475Z,11.59
2018-11-07T23:13:00.368Z,11.59
2018-11-07T23:15:35.208Z,11.58
2018-11-07T23:18:05.301Z,11.59
2018-11-07T23:20:35.209Z,11.59
2018-11-07T23:23:05.211Z,11.61
2018-11-07T23:25:35.000Z,11.65
2018-11-07T23:28:04.857Z,11.66
2018-11-07T23:30:34.594Z,11.67
2018-11-07T23:33:04.425Z,11.64
2018-11-07T23:35:34.300Z,11.63
2018-11-07T23:38:04.229Z,11.65
2018-11-07T23:40:34.024Z,11.64
2018-11-07T23:43:04.025Z,11.63
2018-11-07T23:45:33.805Z,11.63
2018-11-07T23:48:03.658Z,11.64
2018-11-07T23:50:33.455Z,11.55
2018-11-07T23:53:03.211Z,11.51
2018-11-07T23:55:33.058Z,11.50
2018-11-07T23:58:02.873Z,11.52
